Chepstow, United Kingdom
Current Conditions -  °F | °C
As of 6:20 PM on Thursday 30 Oct 2014 (Local Time) from EGGD Reporting Station
Haze Haze  
Wind Chill: 59°   Ceiling: Unl
Heat Index: 59°   Visibility: 3mi
Dew Point: 55°   Wind: 9mph
Humidity: 88%   Direction: 160°SSE
Pressure: 30.03"   Gusts: NA
Location:  51.64°N, 2.68°W
Report Text: EGGD 301820Z 16008KT 5000 HZ SCT007 15/13 Q1017
Loading
Personal Weather Stations






























Interactive Weather Map New forecast layout! Learn more

10-Day Weather Forecast

Advertisements
Track Severe Weather on mobile